sensor_id;sensor_type;location;lat;lon;timestamp;P1;durP1;ratioP1;P2;durP2;ratioP2
47922;SDS011;33688;44.354;9.228;2023-04-25T00:01:20;2.22;;;0.88;;
47922;SDS011;33688;44.354;9.228;2023-04-25T00:03:47;2.42;;;1.05;;
47922;SDS011;33688;44.354;9.228;2023-04-25T00:06:13;2.15;;;1.10;;
47922;SDS011;33688;44.354;9.228;2023-04-25T00:08:39;1.92;;;0.90;;
47922;SDS011;33688;44.354;9.228;2023-04-25T00:11:05;2.22;;;0.75;;
47922;SDS011;33688;44.354;9.228;2023-04-25T00:13:31;2.28;;;1.10;;
47922;SDS011;33688;44.354;9.228;2023-04-25T00:15:57;1.38;;;0.75;;
47922;SDS011;33688;44.354;9.228;2023-04-25T00:18:23;1.70;;;0.93;;
47922;SDS011;33688;44.354;9.228;2023-04-25T00:20:50;1.92;;;1.00;;
47922;SDS011;33688;44.354;9.228;2023-04-25T00:23:16;1.50;;;0.88;;
47922;SDS011;33688;44.354;9.228;2023-04-25T00:25:45;1.52;;;0.80;;
47922;SDS011;33688;44.354;9.228;2023-04-25T00:28:15;1.92;;;1.13;;
47922;SDS011;33688;44.354;9.228;2023-04-25T00:30:41;1.30;;;0.77;;
47922;SDS011;33688;44.354;9.228;2023-04-25T00:33:08;1.33;;;0.80;;
47922;SDS011;33688;44.354;9.228;2023-04-25T00:35:35;2.05;;;1.10;;
47922;SDS011;33688;44.354;9.228;2023-04-25T00:38:01;2.15;;;0.80;;
47922;SDS011;33688;44.354;9.228;2023-04-25T00:40:27;2.33;;;1.15;;
47922;SDS011;33688;44.354;9.228;2023-04-25T00:42:54;2.75;;;1.13;;
47922;SDS011;33688;44.354;9.228;2023-04-25T00:45:22;2.38;;;1.00;;
47922;SDS011;33688;44.354;9.228;2023-04-25T00:47:54;1.52;;;0.85;;
47922;SDS011;33688;44.354;9.228;2023-04-25T00:50:20;1.98;;;1.02;;
47922;SDS011;33688;44.354;9.228;2023-04-25T00:52:46;2.03;;;0.95;;
47922;SDS011;33688;44.354;9.228;2023-04-25T00:55:12;1.58;;;0.73;;
47922;SDS011;33688;44.354;9.228;2023-04-25T00:57:38;2.00;;;1.08;;
47922;SDS011;33688;44.354;9.228;2023-04-25T01:00:07;1.38;;;0.85;;
47922;SDS011;33688;44.354;9.228;2023-04-25T01:02:36;1.33;;;0.85;;
47922;SDS011;33688;44.354;9.228;2023-04-25T01:05:03;1.33;;;0.70;;
47922;SDS011;33688;44.354;9.228;2023-04-25T01:07:29;1.60;;;0.98;;
47922;SDS011;33688;44.354;9.228;2023-04-25T01:09:55;3.85;;;1.10;;
47922;SDS011;33688;44.354;9.228;2023-04-25T01:12:22;1.42;;;0.85;;
47922;SDS011;33688;44.354;9.228;2023-04-25T01:14:48;1.85;;;0.80;;
47922;SDS011;33688;44.354;9.228;2023-04-25T01:17:14;1.45;;;0.77;;
47922;SDS011;33688;44.354;9.228;2023-04-25T01:19:41;1.00;;;0.90;;
47922;SDS011;33688;44.354;9.228;2023-04-25T01:24:37;1.92;;;1.05;;
47922;SDS011;33688;44.354;9.228;2023-04-25T01:27:03;2.40;;;0.95;;
47922;SDS011;33688;44.354;9.228;2023-04-25T01:29:29;1.80;;;0.90;;
47922;SDS011;33688;44.354;9.228;2023-04-25T01:31:56;2.05;;;0.85;;
47922;SDS011;33688;44.354;9.228;2023-04-25T01:34:23;1.70;;;1.00;;
47922;SDS011;33688;44.354;9.228;2023-04-25T01:36:51;1.02;;;0.75;;
47922;SDS011;33688;44.354;9.228;2023-04-25T01:39:17;1.63;;;1.08;;
47922;SDS011;33688;44.354;9.228;2023-04-25T01:41:44;1.75;;;0.90;;
47922;SDS011;33688;44.354;9.228;2023-04-25T01:44:13;1.80;;;0.90;;
47922;SDS011;33688;44.354;9.228;2023-04-25T01:46:40;1.55;;;1.02;;
47922;SDS011;33688;44.354;9.228;2023-04-25T01:49:06;2.70;;;1.02;;
47922;SDS011;33688;44.354;9.228;2023-04-25T01:51:33;0.90;;;0.60;;
47922;SDS011;33688;44.354;9.228;2023-04-25T01:54:00;1.00;;;0.68;;
47922;SDS011;33688;44.354;9.228;2023-04-25T01:56:30;0.95;;;0.50;;
47922;SDS011;33688;44.354;9.228;2023-04-25T01:59:02;2.08;;;1.00;;
47922;SDS011;33688;44.354;9.228;2023-04-25T02:01:37;1.35;;;0.70;;
47922;SDS011;33688;44.354;9.228;2023-04-25T02:04:20;1.25;;;0.60;;
47922;SDS011;33688;44.354;9.228;2023-04-25T02:06:47;1.52;;;0.52;;
47922;SDS011;33688;44.354;9.228;2023-04-25T02:09:13;1.50;;;0.80;;
47922;SDS011;33688;44.354;9.228;2023-04-25T02:11:46;2.10;;;0.98;;
47922;SDS011;33688;44.354;9.228;2023-04-25T02:14:32;1.60;;;0.70;;
47922;SDS011;33688;44.354;9.228;2023-04-25T02:17:03;2.33;;;1.00;;
47922;SDS011;33688;44.354;9.228;2023-04-25T02:19:30;1.27;;;0.73;;
47922;SDS011;33688;44.354;9.228;2023-04-25T02:21:56;2.05;;;1.17;;
47922;SDS011;33688;44.354;9.228;2023-04-25T02:24:22;1.85;;;0.90;;
47922;SDS011;33688;44.354;9.228;2023-04-25T02:26:48;2.13;;;0.98;;
47922;SDS011;33688;44.354;9.228;2023-04-25T02:29:15;0.85;;;0.45;;
47922;SDS011;33688;44.354;9.228;2023-04-25T02:31:41;1.65;;;0.82;;
47922;SDS011;33688;44.354;9.228;2023-04-25T02:34:07;1.20;;;0.75;;
47922;SDS011;33688;44.354;9.228;2023-04-25T02:36:36;1.02;;;0.68;;
47922;SDS011;33688;44.354;9.228;2023-04-25T02:39:02;1.33;;;0.60;;
47922;SDS011;33688;44.354;9.228;2023-04-25T02:41:28;2.95;;;1.08;;
47922;SDS011;33688;44.354;9.228;2023-04-25T02:43:54;1.13;;;0.60;;
47922;SDS011;33688;44.354;9.228;2023-04-25T02:49:05;0.95;;;0.70;;
47922;SDS011;33688;44.354;9.228;2023-04-25T02:51:32;0.80;;;0.63;;
47922;SDS011;33688;44.354;9.228;2023-04-25T02:53:58;4.03;;;0.98;;
47922;SDS011;33688;44.354;9.228;2023-04-25T02:56:26;0.98;;;0.73;;
47922;SDS011;33688;44.354;9.228;2023-04-25T02:58:52;1.08;;;0.85;;
47922;SDS011;33688;44.354;9.228;2023-04-25T03:01:18;1.52;;;0.75;;
47922;SDS011;33688;44.354;9.228;2023-04-25T03:03:44;1.52;;;0.70;;
47922;SDS011;33688;44.354;9.228;2023-04-25T03:06:12;3.28;;;0.82;;
47922;SDS011;33688;44.354;9.228;2023-04-25T03:08:37;1.35;;;0.70;;
47922;SDS011;33688;44.354;9.228;2023-04-25T03:11:04;1.85;;;0.90;;
47922;SDS011;33688;44.354;9.228;2023-04-25T03:13:30;0.98;;;0.65;;
47922;SDS011;33688;44.354;9.228;2023-04-25T03:15:56;1.13;;;0.80;;
47922;SDS011;33688;44.354;9.228;2023-04-25T03:18:22;1.77;;;0.52;;
47922;SDS011;33688;44.354;9.228;2023-04-25T03:20:48;1.02;;;0.60;;
47922;SDS011;33688;44.354;9.228;2023-04-25T03:23:13;1.25;;;0.70;;
47922;SDS011;33688;44.354;9.228;2023-04-25T03:25:42;0.88;;;0.65;;
47922;SDS011;33688;44.354;9.228;2023-04-25T03:28:08;1.27;;;0.93;;
47922;SDS011;33688;44.354;9.228;2023-04-25T03:30:34;0.50;;;0.50;;
47922;SDS011;33688;44.354;9.228;2023-04-25T03:33:00;1.00;;;0.65;;
47922;SDS011;33688;44.354;9.228;2023-04-25T03:35:28;1.83;;;1.27;;
47922;SDS011;33688;44.354;9.228;2023-04-25T03:37:54;1.15;;;0.70;;
47922;SDS011;33688;44.354;9.228;2023-04-25T03:40:25;1.23;;;0.85;;
47922;SDS011;33688;44.354;9.228;2023-04-25T03:43:06;0.95;;;0.77;;
47922;SDS011;33688;44.354;9.228;2023-04-25T03:45:33;1.25;;;0.80;;
47922;SDS011;33688;44.354;9.228;2023-04-25T03:48:00;1.50;;;0.80;;
47922;SDS011;33688;44.354;9.228;2023-04-25T03:50:28;2.47;;;1.00;;
47922;SDS011;33688;44.354;9.228;2023-04-25T03:52:53;0.95;;;0.60;;
47922;SDS011;33688;44.354;9.228;2023-04-25T03:55:24;1.60;;;1.05;;
47922;SDS011;33688;44.354;9.228;2023-04-25T03:57:50;1.45;;;0.73;;
47922;SDS011;33688;44.354;9.228;2023-04-25T04:00:17;1.75;;;0.70;;
47922;SDS011;33688;44.354;9.228;2023-04-25T04:02:43;1.58;;;0.80;;
47922;SDS011;33688;44.354;9.228;2023-04-25T04:05:10;1.00;;;0.73;;
47922;SDS011;33688;44.354;9.228;2023-04-25T04:07:40;1.10;;;0.77;;
47922;SDS011;33688;44.354;9.228;2023-04-25T04:10:09;1.73;;;1.10;;
47922;SDS011;33688;44.354;9.228;2023-04-25T04:12:38;1.08;;;0.90;;
47922;SDS011;33688;44.354;9.228;2023-04-25T04:15:05;2.42;;;1.05;;
47922;SDS011;33688;44.354;9.228;2023-04-25T04:17:32;1.55;;;0.90;;
47922;SDS011;33688;44.354;9.228;2023-04-25T04:19:59;1.25;;;0.80;;
47922;SDS011;33688;44.354;9.228;2023-04-25T04:22:27;1.02;;;0.63;;
47922;SDS011;33688;44.354;9.228;2023-04-25T04:24:57;1.35;;;0.77;;
47922;SDS011;33688;44.354;9.228;2023-04-25T04:27:42;0.88;;;0.77;;
47922;SDS011;33688;44.354;9.228;2023-04-25T04:30:33;1.30;;;1.00;;
47922;SDS011;33688;44.354;9.228;2023-04-25T04:33:03;0.85;;;0.70;;
47922;SDS011;33688;44.354;9.228;2023-04-25T04:35:30;1.33;;;1.08;;
47922;SDS011;33688;44.354;9.228;2023-04-25T04:37:56;1.45;;;1.00;;
47922;SDS011;33688;44.354;9.228;2023-04-25T04:40:25;2.50;;;1.45;;
47922;SDS011;33688;44.354;9.228;2023-04-25T04:43:04;2.50;;;1.27;;
47922;SDS011;33688;44.354;9.228;2023-04-25T04:45:42;2.47;;;1.30;;
47922;SDS011;33688;44.354;9.228;2023-04-25T04:48:38;1.05;;;0.82;;
47922;SDS011;33688;44.354;9.228;2023-04-25T04:51:10;1.10;;;0.90;;
47922;SDS011;33688;44.354;9.228;2023-04-25T04:53:45;1.55;;;0.85;;
47922;SDS011;33688;44.354;9.228;2023-04-25T04:56:22;1.40;;;1.30;;
47922;SDS011;33688;44.354;9.228;2023-04-25T04:58:50;3.47;;;0.82;;
47922;SDS011;33688;44.354;9.228;2023-04-25T05:01:36;1.45;;;1.10;;
47922;SDS011;33688;44.354;9.228;2023-04-25T05:04:22;1.42;;;0.98;;
47922;SDS011;33688;44.354;9.228;2023-04-25T05:07:04;1.50;;;1.10;;
47922;SDS011;33688;44.354;9.228;2023-04-25T05:09:30;2.15;;;1.20;;
47922;SDS011;33688;44.354;9.228;2023-04-25T05:12:14;2.67;;;1.00;;
47922;SDS011;33688;44.354;9.228;2023-04-25T05:15:03;1.60;;;0.95;;
47922;SDS011;33688;44.354;9.228;2023-04-25T05:17:29;1.65;;;1.02;;
47922;SDS011;33688;44.354;9.228;2023-04-25T05:20:20;2.47;;;1.50;;
47922;SDS011;33688;44.354;9.228;2023-04-25T05:23:21;1.50;;;0.90;;
47922;SDS011;33688;44.354;9.228;2023-04-25T05:26:16;1.30;;;0.90;;
47922;SDS011;33688;44.354;9.228;2023-04-25T05:28:51;0.80;;;0.80;;
47922;SDS011;33688;44.354;9.228;2023-04-25T05:31:35;1.08;;;0.95;;
47922;SDS011;33688;44.354;9.228;2023-04-25T05:34:06;1.52;;;0.95;;
47922;SDS011;33688;44.354;9.228;2023-04-25T05:37:07;2.00;;;1.10;;
47922;SDS011;33688;44.354;9.228;2023-04-25T05:39:44;1.35;;;1.08;;
47922;SDS011;33688;44.354;9.228;2023-04-25T05:42:14;2.08;;;1.33;;
47922;SDS011;33688;44.354;9.228;2023-04-25T05:45:00;2.30;;;1.02;;
47922;SDS011;33688;44.354;9.228;2023-04-25T05:47:55;1.15;;;0.75;;
47922;SDS011;33688;44.354;9.228;2023-04-25T05:50:41;1.70;;;1.05;;
47922;SDS011;33688;44.354;9.228;2023-04-25T05:53:34;1.52;;;0.98;;
47922;SDS011;33688;44.354;9.228;2023-04-25T05:56:01;2.25;;;1.13;;
47922;SDS011;33688;44.354;9.228;2023-04-25T05:58:28;1.30;;;1.02;;
47922;SDS011;33688;44.354;9.228;2023-04-25T06:00:55;1.80;;;1.20;;
47922;SDS011;33688;44.354;9.228;2023-04-25T06:03:22;1.88;;;1.27;;
47922;SDS011;33688;44.354;9.228;2023-04-25T06:05:48;1.25;;;0.90;;
47922;SDS011;33688;44.354;9.228;2023-04-25T06:08:14;1.75;;;0.98;;
47922;SDS011;33688;44.354;9.228;2023-04-25T06:10:40;1.05;;;0.70;;
47922;SDS011;33688;44.354;9.228;2023-04-25T06:13:06;1.60;;;0.90;;
47922;SDS011;33688;44.354;9.228;2023-04-25T06:15:33;2.45;;;1.13;;
47922;SDS011;33688;44.354;9.228;2023-04-25T06:18:00;1.60;;;1.13;;
47922;SDS011;33688;44.354;9.228;2023-04-25T06:20:26;0.95;;;0.90;;
47922;SDS011;33688;44.354;9.228;2023-04-25T06:22:56;1.20;;;0.80;;
47922;SDS011;33688;44.354;9.228;2023-04-25T06:25:40;1.33;;;0.82;;
47922;SDS011;33688;44.354;9.228;2023-04-25T06:28:06;1.25;;;1.00;;
47922;SDS011;33688;44.354;9.228;2023-04-25T06:30:31;1.35;;;0.70;;
47922;SDS011;33688;44.354;9.228;2023-04-25T06:33:03;2.10;;;0.90;;
47922;SDS011;33688;44.354;9.228;2023-04-25T06:35:30;1.30;;;0.95;;
47922;SDS011;33688;44.354;9.228;2023-04-25T06:37:57;1.50;;;1.00;;
47922;SDS011;33688;44.354;9.228;2023-04-25T06:40:23;1.10;;;0.80;;
47922;SDS011;33688;44.354;9.228;2023-04-25T06:42:49;0.85;;;0.80;;
47922;SDS011;33688;44.354;9.228;2023-04-25T06:45:30;1.05;;;0.70;;
47922;SDS011;33688;44.354;9.228;2023-04-25T06:47:57;1.65;;;1.05;;
47922;SDS011;33688;44.354;9.228;2023-04-25T06:50:23;1.55;;;1.00;;
47922;SDS011;33688;44.354;9.228;2023-04-25T06:52:49;1.40;;;0.90;;
47922;SDS011;33688;44.354;9.228;2023-04-25T06:55:16;2.00;;;1.13;;
47922;SDS011;33688;44.354;9.228;2023-04-25T06:58:01;1.60;;;1.13;;
47922;SDS011;33688;44.354;9.228;2023-04-25T07:00:51;1.63;;;0.80;;
47922;SDS011;33688;44.354;9.228;2023-04-25T07:03:19;3.50;;;1.00;;
47922;SDS011;33688;44.354;9.228;2023-04-25T07:05:45;2.30;;;1.17;;
47922;SDS011;33688;44.354;9.228;2023-04-25T07:08:11;1.55;;;0.90;;
47922;SDS011;33688;44.354;9.228;2023-04-25T07:10:37;0.98;;;0.80;;
47922;SDS011;33688;44.354;9.228;2023-04-25T07:13:03;1.38;;;1.00;;
47922;SDS011;33688;44.354;9.228;2023-04-25T07:15:29;1.55;;;0.82;;
47922;SDS011;33688;44.354;9.228;2023-04-25T07:17:56;0.90;;;0.77;;
47922;SDS011;33688;44.354;9.228;2023-04-25T07:20:22;2.35;;;1.17;;
47922;SDS011;33688;44.354;9.228;2023-04-25T07:22:48;4.65;;;1.50;;
47922;SDS011;33688;44.354;9.228;2023-04-25T07:25:16;1.45;;;0.95;;
47922;SDS011;33688;44.354;9.228;2023-04-25T07:27:42;2.03;;;1.30;;
47922;SDS011;33688;44.354;9.228;2023-04-25T07:30:14;2.05;;;1.05;;
47922;SDS011;33688;44.354;9.228;2023-04-25T07:32:40;1.98;;;0.90;;
47922;SDS011;33688;44.354;9.228;2023-04-25T07:35:07;1.63;;;1.10;;
47922;SDS011;33688;44.354;9.228;2023-04-25T07:37:34;2.22;;;0.90;;
47922;SDS011;33688;44.354;9.228;2023-04-25T07:40:13;1.83;;;1.02;;
47922;SDS011;33688;44.354;9.228;2023-04-25T07:42:46;2.92;;;1.40;;
47922;SDS011;33688;44.354;9.228;2023-04-25T07:45:17;1.58;;;0.90;;
47922;SDS011;33688;44.354;9.228;2023-04-25T07:47:43;1.67;;;1.05;;
47922;SDS011;33688;44.354;9.228;2023-04-25T07:50:10;2.58;;;0.90;;
47922;SDS011;33688;44.354;9.228;2023-04-25T07:52:36;2.13;;;0.95;;
47922;SDS011;33688;44.354;9.228;2023-04-25T07:55:12;1.55;;;1.17;;
47922;SDS011;33688;44.354;9.228;2023-04-25T07:57:56;1.70;;;1.00;;
47922;SDS011;33688;44.354;9.228;2023-04-25T08:00:23;2.45;;;1.05;;
47922;SDS011;33688;44.354;9.228;2023-04-25T08:03:01;2.58;;;1.38;;
47922;SDS011;33688;44.354;9.228;2023-04-25T08:05:28;3.88;;;1.13;;
47922;SDS011;33688;44.354;9.228;2023-04-25T08:10:28;2.65;;;1.20;;
47922;SDS011;33688;44.354;9.228;2023-04-25T08:15:39;3.08;;;1.40;;
47922;SDS011;33688;44.354;9.228;2023-04-25T08:18:05;2.13;;;1.08;;
47922;SDS011;33688;44.354;9.228;2023-04-25T08:20:31;1.83;;;0.98;;
47922;SDS011;33688;44.354;9.228;2023-04-25T08:23:00;2.95;;;1.02;;
47922;SDS011;33688;44.354;9.228;2023-04-25T08:25:36;2.70;;;1.65;;
47922;SDS011;33688;44.354;9.228;2023-04-25T08:28:01;2.50;;;1.10;;
47922;SDS011;33688;44.354;9.228;2023-04-25T08:30:28;4.32;;;1.40;;
47922;SDS011;33688;44.354;9.228;2023-04-25T08:32:55;5.28;;;1.80;;
47922;SDS011;33688;44.354;9.228;2023-04-25T08:35:52;1.30;;;0.88;;
47922;SDS011;33688;44.354;9.228;2023-04-25T08:38:18;2.05;;;0.90;;
47922;SDS011;33688;44.354;9.228;2023-04-25T08:40:46;3.47;;;1.10;;
47922;SDS011;33688;44.354;9.228;2023-04-25T08:43:19;3.38;;;1.38;;
47922;SDS011;33688;44.354;9.228;2023-04-25T08:45:45;4.03;;;1.73;;
47922;SDS011;33688;44.354;9.228;2023-04-25T08:48:29;5.40;;;1.08;;
47922;SDS011;33688;44.354;9.228;2023-04-25T08:50:58;5.88;;;1.40;;
47922;SDS011;33688;44.354;9.228;2023-04-25T08:53:29;2.67;;;1.15;;
47922;SDS011;33688;44.354;9.228;2023-04-25T08:56:01;3.40;;;1.77;;
47922;SDS011;33688;44.354;9.228;2023-04-25T08:58:28;3.47;;;1.38;;
47922;SDS011;33688;44.354;9.228;2023-04-25T09:00:54;4.05;;;1.13;;
47922;SDS011;33688;44.354;9.228;2023-04-25T09:03:22;2.38;;;1.00;;
47922;SDS011;33688;44.354;9.228;2023-04-25T09:05:48;2.67;;;1.30;;
47922;SDS011;33688;44.354;9.228;2023-04-25T09:08:15;3.25;;;1.30;;
47922;SDS011;33688;44.354;9.228;2023-04-25T09:10:41;3.33;;;0.98;;
47922;SDS011;33688;44.354;9.228;2023-04-25T09:13:12;2.42;;;1.10;;
47922;SDS011;33688;44.354;9.228;2023-04-25T09:16:01;2.53;;;1.30;;
47922;SDS011;33688;44.354;9.228;2023-04-25T09:18:44;4.95;;;1.25;;
47922;SDS011;33688;44.354;9.228;2023-04-25T09:21:13;1.38;;;0.80;;
47922;SDS011;33688;44.354;9.228;2023-04-25T09:23:48;2.97;;;1.30;;
47922;SDS011;33688;44.354;9.228;2023-04-25T09:26:18;3.70;;;1.20;;
47922;SDS011;33688;44.354;9.228;2023-04-25T09:28:45;2.08;;;1.00;;
47922;SDS011;33688;44.354;9.228;2023-04-25T09:31:22;2.35;;;1.00;;
47922;SDS011;33688;44.354;9.228;2023-04-25T09:33:50;1.67;;;0.93;;
47922;SDS011;33688;44.354;9.228;2023-04-25T09:36:27;2.55;;;1.20;;
47922;SDS011;33688;44.354;9.228;2023-04-25T09:39:22;1.50;;;1.00;;
47922;SDS011;33688;44.354;9.228;2023-04-25T09:42:02;1.92;;;1.10;;
47922;SDS011;33688;44.354;9.228;2023-04-25T09:44:30;2.95;;;1.15;;
47922;SDS011;33688;44.354;9.228;2023-04-25T09:46:56;3.22;;;1.20;;
47922;SDS011;33688;44.354;9.228;2023-04-25T09:49:25;1.15;;;0.80;;
47922;SDS011;33688;44.354;9.228;2023-04-25T09:52:05;1.75;;;0.90;;
47922;SDS011;33688;44.354;9.228;2023-04-25T09:54:48;4.72;;;0.98;;
47922;SDS011;33688;44.354;9.228;2023-04-25T09:57:20;1.77;;;0.93;;
47922;SDS011;33688;44.354;9.228;2023-04-25T09:59:49;2.05;;;1.20;;
47922;SDS011;33688;44.354;9.228;2023-04-25T10:02:21;3.42;;;1.20;;
47922;SDS011;33688;44.354;9.228;2023-04-25T10:04:54;3.33;;;1.38;;
47922;SDS011;33688;44.354;9.228;2023-04-25T10:07:26;1.50;;;0.80;;
47922;SDS011;33688;44.354;9.228;2023-04-25T10:09:58;2.70;;;0.93;;
47922;SDS011;33688;44.354;9.228;2023-04-25T10:12:27;1.02;;;0.95;;
47922;SDS011;33688;44.354;9.228;2023-04-25T10:14:54;1.63;;;0.88;;
47922;SDS011;33688;44.354;9.228;2023-04-25T10:17:20;2.35;;;0.93;;
47922;SDS011;33688;44.354;9.228;2023-04-25T10:19:49;2.50;;;1.15;;
47922;SDS011;33688;44.354;9.228;2023-04-25T10:25:00;1.05;;;0.60;;
47922;SDS011;33688;44.354;9.228;2023-04-25T10:27:30;1.73;;;0.90;;
47922;SDS011;33688;44.354;9.228;2023-04-25T10:30:00;2.08;;;1.02;;
47922;SDS011;33688;44.354;9.228;2023-04-25T10:32:32;1.38;;;0.90;;
47922;SDS011;33688;44.354;9.228;2023-04-25T10:38:25;1.92;;;1.00;;
47922;SDS011;33688;44.354;9.228;2023-04-25T10:40:31;2.10;;;0.82;;
47922;SDS011;33688;44.354;9.228;2023-04-25T10:46:16;3.00;;;1.10;;
47922;SDS011;33688;44.354;9.228;2023-04-25T10:48:56;1.50;;;1.00;;
47922;SDS011;33688;44.354;9.228;2023-04-25T10:51:24;2.35;;;1.05;;
47922;SDS011;33688;44.354;9.228;2023-04-25T10:54:05;2.25;;;1.00;;
47922;SDS011;33688;44.354;9.228;2023-04-25T10:56:41;2.30;;;0.90;;
47922;SDS011;33688;44.354;9.228;2023-04-25T10:59:13;3.00;;;0.90;;
47922;SDS011;33688;44.354;9.228;2023-04-25T11:01:45;2.15;;;1.13;;
47922;SDS011;33688;44.354;9.228;2023-04-25T11:04:23;3.92;;;1.20;;
47922;SDS011;33688;44.354;9.228;2023-04-25T11:09:27;2.97;;;1.00;;
47922;SDS011;33688;44.354;9.228;2023-04-25T11:11:54;1.50;;;0.85;;
47922;SDS011;33688;44.354;9.228;2023-04-25T11:14:21;1.63;;;1.02;;
47922;SDS011;33688;44.354;9.228;2023-04-25T11:16:47;2.78;;;1.05;;
47922;SDS011;33688;44.354;9.228;2023-04-25T11:19:21;1.63;;;0.90;;
47922;SDS011;33688;44.354;9.228;2023-04-25T11:21:48;2.00;;;0.90;;
47922;SDS011;33688;44.354;9.228;2023-04-25T11:24:15;2.78;;;1.02;;
47922;SDS011;33688;44.354;9.228;2023-04-25T11:26:42;2.47;;;1.25;;
47922;SDS011;33688;44.354;9.228;2023-04-25T11:29:12;2.35;;;1.17;;
47922;SDS011;33688;44.354;9.228;2023-04-25T11:31:38;3.20;;;1.35;;
47922;SDS011;33688;44.354;9.228;2023-04-25T11:34:03;2.00;;;0.98;;
47922;SDS011;33688;44.354;9.228;2023-04-25T11:36:30;2.53;;;1.42;;
47922;SDS011;33688;44.354;9.228;2023-04-25T11:38:56;3.63;;;1.05;;
47922;SDS011;33688;44.354;9.228;2023-04-25T11:41:25;3.03;;;1.27;;
47922;SDS011;33688;44.354;9.228;2023-04-25T11:43:51;1.58;;;0.82;;
47922;SDS011;33688;44.354;9.228;2023-04-25T11:46:18;3.22;;;1.08;;
47922;SDS011;33688;44.354;9.228;2023-04-25T11:48:45;3.65;;;1.40;;
47922;SDS011;33688;44.354;9.228;2023-04-25T11:51:11;3.70;;;1.17;;
47922;SDS011;33688;44.354;9.228;2023-04-25T11:53:40;3.42;;;1.15;;
47922;SDS011;33688;44.354;9.228;2023-04-25T11:56:12;2.30;;;1.15;;
47922;SDS011;33688;44.354;9.228;2023-04-25T11:58:54;3.92;;;1.40;;
47922;SDS011;33688;44.354;9.228;2023-04-25T12:01:32;2.47;;;1.00;;
47922;SDS011;33688;44.354;9.228;2023-04-25T12:06:43;5.35;;;1.00;;
47922;SDS011;33688;44.354;9.228;2023-04-25T12:09:15;2.45;;;1.15;;
47922;SDS011;33688;44.354;9.228;2023-04-25T12:11:53;2.38;;;1.17;;
47922;SDS011;33688;44.354;9.228;2023-04-25T12:14:25;1.63;;;1.02;;
47922;SDS011;33688;44.354;9.228;2023-04-25T12:16:55;2.40;;;0.98;;
47922;SDS011;33688;44.354;9.228;2023-04-25T12:19:23;2.67;;;1.05;;
47922;SDS011;33688;44.354;9.228;2023-04-25T12:21:49;2.22;;;1.27;;
47922;SDS011;33688;44.354;9.228;2023-04-25T12:24:24;1.73;;;1.10;;
47922;SDS011;33688;44.354;9.228;2023-04-25T12:26:53;3.08;;;1.35;;
47922;SDS011;33688;44.354;9.228;2023-04-25T12:29:26;2.33;;;1.10;;
47922;SDS011;33688;44.354;9.228;2023-04-25T12:31:54;2.17;;;0.90;;
47922;SDS011;33688;44.354;9.228;2023-04-25T12:34:21;3.88;;;1.45;;
47922;SDS011;33688;44.354;9.228;2023-04-25T12:36:48;4.22;;;1.23;;
47922;SDS011;33688;44.354;9.228;2023-04-25T12:39:15;2.40;;;1.20;;
47922;SDS011;33688;44.354;9.228;2023-04-25T12:41:42;2.28;;;1.23;;
47922;SDS011;33688;44.354;9.228;2023-04-25T12:44:09;2.75;;;1.52;;
47922;SDS011;33688;44.354;9.228;2023-04-25T12:46:37;1.92;;;0.93;;
47922;SDS011;33688;44.354;9.228;2023-04-25T12:49:03;2.55;;;1.27;;
47922;SDS011;33688;44.354;9.228;2023-04-25T12:51:32;3.00;;;0.93;;
47922;SDS011;33688;44.354;9.228;2023-04-25T12:53:58;3.72;;;1.33;;
47922;SDS011;33688;44.354;9.228;2023-04-25T12:56:29;2.22;;;1.08;;
47922;SDS011;33688;44.354;9.228;2023-04-25T12:58:55;2.50;;;1.17;;
47922;SDS011;33688;44.354;9.228;2023-04-25T13:01:23;1.90;;;1.13;;
47922;SDS011;33688;44.354;9.228;2023-04-25T13:03:50;1.83;;;1.17;;
47922;SDS011;33688;44.354;9.228;2023-04-25T13:06:16;2.55;;;1.15;;
47922;SDS011;33688;44.354;9.228;2023-04-25T13:08:43;2.85;;;1.45;;
47922;SDS011;33688;44.354;9.228;2023-04-25T13:11:09;2.75;;;1.23;;
47922;SDS011;33688;44.354;9.228;2023-04-25T13:13:36;2.92;;;1.40;;
47922;SDS011;33688;44.354;9.228;2023-04-25T13:16:03;2.15;;;0.88;;
47922;SDS011;33688;44.354;9.228;2023-04-25T13:18:30;2.58;;;1.02;;
47922;SDS011;33688;44.354;9.228;2023-04-25T13:20:58;2.72;;;1.20;;
47922;SDS011;33688;44.354;9.228;2023-04-25T13:23:26;5.57;;;1.55;;
47922;SDS011;33688;44.354;9.228;2023-04-25T13:25:54;3.35;;;1.58;;
47922;SDS011;33688;44.354;9.228;2023-04-25T13:28:23;3.20;;;1.20;;
47922;SDS011;33688;44.354;9.228;2023-04-25T13:30:49;5.13;;;2.17;;
47922;SDS011;33688;44.354;9.228;2023-04-25T13:33:15;3.17;;;1.30;;
47922;SDS011;33688;44.354;9.228;2023-04-25T13:35:41;3.00;;;1.33;;
47922;SDS011;33688;44.354;9.228;2023-04-25T13:38:08;3.72;;;0.98;;
47922;SDS011;33688;44.354;9.228;2023-04-25T13:40:34;1.45;;;0.90;;
47922;SDS011;33688;44.354;9.228;2023-04-25T13:43:01;2.30;;;1.33;;
47922;SDS011;33688;44.354;9.228;2023-04-25T13:45:27;4.13;;;1.40;;
47922;SDS011;33688;44.354;9.228;2023-04-25T13:47:53;4.85;;;1.48;;
47922;SDS011;33688;44.354;9.228;2023-04-25T13:50:19;2.20;;;1.00;;
47922;SDS011;33688;44.354;9.228;2023-04-25T13:52:45;3.08;;;1.30;;
47922;SDS011;33688;44.354;9.228;2023-04-25T13:55:11;1.45;;;0.68;;
47922;SDS011;33688;44.354;9.228;2023-04-25T13:57:37;3.13;;;1.27;;
47922;SDS011;33688;44.354;9.228;2023-04-25T14:00:04;3.25;;;1.45;;
47922;SDS011;33688;44.354;9.228;2023-04-25T14:02:37;2.05;;;1.23;;
47922;SDS011;33688;44.354;9.228;2023-04-25T14:05:04;3.53;;;1.10;;
47922;SDS011;33688;44.354;9.228;2023-04-25T14:07:33;5.13;;;1.42;;
47922;SDS011;33688;44.354;9.228;2023-04-25T14:10:00;2.90;;;1.55;;
47922;SDS011;33688;44.354;9.228;2023-04-25T14:12:26;2.03;;;1.10;;
47922;SDS011;33688;44.354;9.228;2023-04-25T14:14:52;5.22;;;1.27;;
47922;SDS011;33688;44.354;9.228;2023-04-25T14:17:19;1.52;;;0.90;;
47922;SDS011;33688;44.354;9.228;2023-04-25T14:19:44;2.08;;;1.00;;
47922;SDS011;33688;44.354;9.228;2023-04-25T14:22:11;3.17;;;1.27;;
47922;SDS011;33688;44.354;9.228;2023-04-25T14:27:06;4.65;;;1.30;;
47922;SDS011;33688;44.354;9.228;2023-04-25T14:29:32;2.42;;;1.20;;
47922;SDS011;33688;44.354;9.228;2023-04-25T14:31:58;4.18;;;1.48;;
47922;SDS011;33688;44.354;9.228;2023-04-25T14:34:25;4.25;;;1.70;;
47922;SDS011;33688;44.354;9.228;2023-04-25T14:36:52;4.03;;;1.50;;
47922;SDS011;33688;44.354;9.228;2023-04-25T14:39:19;3.63;;;1.48;;
47922;SDS011;33688;44.354;9.228;2023-04-25T14:41:45;4.10;;;1.30;;
47922;SDS011;33688;44.354;9.228;2023-04-25T14:44:11;5.97;;;1.73;;
47922;SDS011;33688;44.354;9.228;2023-04-25T14:46:36;3.85;;;1.40;;
47922;SDS011;33688;44.354;9.228;2023-04-25T14:49:03;4.68;;;1.70;;
47922;SDS011;33688;44.354;9.228;2023-04-25T14:51:29;4.85;;;1.40;;
47922;SDS011;33688;44.354;9.228;2023-04-25T14:53:56;6.32;;;1.58;;
47922;SDS011;33688;44.354;9.228;2023-04-25T14:56:22;8.50;;;1.70;;
47922;SDS011;33688;44.354;9.228;2023-04-25T14:58:47;4.72;;;1.67;;
47922;SDS011;33688;44.354;9.228;2023-04-25T15:01:13;3.75;;;1.50;;
47922;SDS011;33688;44.354;9.228;2023-04-25T15:03:39;6.15;;;1.75;;
47922;SDS011;33688;44.354;9.228;2023-04-25T15:06:06;9.15;;;1.92;;
47922;SDS011;33688;44.354;9.228;2023-04-25T15:08:33;4.43;;;1.63;;
47922;SDS011;33688;44.354;9.228;2023-04-25T15:10:59;5.85;;;2.17;;
47922;SDS011;33688;44.354;9.228;2023-04-25T15:13:27;7.65;;;1.90;;
47922;SDS011;33688;44.354;9.228;2023-04-25T15:15:52;4.63;;;1.40;;
47922;SDS011;33688;44.354;9.228;2023-04-25T15:18:22;6.57;;;2.30;;
47922;SDS011;33688;44.354;9.228;2023-04-25T15:20:53;8.60;;;1.80;;
47922;SDS011;33688;44.354;9.228;2023-04-25T15:23:19;5.57;;;1.80;;
47922;SDS011;33688;44.354;9.228;2023-04-25T15:25:46;5.38;;;1.70;;
47922;SDS011;33688;44.354;9.228;2023-04-25T15:28:12;4.20;;;1.45;;
47922;SDS011;33688;44.354;9.228;2023-04-25T15:30:43;7.40;;;1.88;;